LIMP/PMF METAR and TAF weather

Enter ICAO airport designator
Station Type Date Time Source
LIMP METAR 2021/09/23 20:50 UTC NOAA

LIMP 232050Z 23003KT CAVOK 17/12 Q1020


Station Type Date Time Source
LIMP Decoded METAR 2021/09/23 20:50 UTC NOAA

Parma, Italy (LIMP) 44-49-17N 010-17-41E
Sep 23, 2021 - 04:50 PM EDT / 2021.09.23 2050 UTC
Wind: from the SW (230 degrees) at 3 MPH (3 KT):0
Visibility: greater than 7 mile(s):0
Temperature: 62 F (17 C)
Dew Point: 53 F (12 C)
Relative Humidity: 72%
Pressure (altimeter): 30.12 in. Hg (1020 hPa)
ob: LIMP 232050Z 23003KT CAVOK 17/12 Q1020
cycle: 21

Station Type Date Time Source
LIMP TAF 2021/09/23 18:21 UTC NOAA

TAF LIMP 231700Z 2318/2418 VRB05KT 9999 SCT050

Example: see airport list